Terminal Aerodrome Forecast
Issued by NWS Northern Indiana

Home | Current Version | Previous Version | Text Only | Print | Product List | Glossary Off
Versions: 1 2 3 4 5 6 7 8 9 10 11 12 13 14 15

678
FTUS43 KIWX 130531
TAFFWA
TAF
KFWA 130531Z 1306/1406 30012KT 3SM -SHSN SCT020 OVC050
     FM130700 32012KT P6SM SCT040
     FM131300 31012KT P6SM VCSH BKN035
     FM132200 28007KT P6SM SCT035=

USA.gov is the U.S. government's official web portal to all federal, state and local government web resources and services.